sensor_id;sensor_type;location;lat;lon;timestamp;P1;durP1;ratioP1;P2;durP2;ratioP2
85301;SDS011;75707;46.948;7.410;2024-02-26T00:00:27;0.899999976;;;0.800000012;;
85301;SDS011;75707;46.948;7.410;2024-02-26T00:01:31;0.699999988;;;0.600000024;;
85301;SDS011;75707;46.948;7.410;2024-02-26T00:02:29;1.200000048;;;0.699999988;;
85301;SDS011;75707;46.948;7.410;2024-02-26T00:03:30;0.600000024;;;0.600000024;;
85301;SDS011;75707;46.948;7.410;2024-02-26T00:04:35;0.800000012;;;0.800000012;;
85301;SDS011;75707;46.948;7.410;2024-02-26T00:06:33;1;;;0.800000012;;
85301;SDS011;75707;46.948;7.410;2024-02-26T00:07:34;1.100000024;;;1;;
85301;SDS011;75707;46.948;7.410;2024-02-26T00:08:35;1.100000024;;;0.899999976;;
85301;SDS011;75707;46.948;7.410;2024-02-26T00:09:36;1;;;0.899999976;;
85301;SDS011;75707;46.948;7.410;2024-02-26T00:10:37;1.200000048;;;0.800000012;;
85301;SDS011;75707;46.948;7.410;2024-02-26T00:11:38;0.899999976;;;0.899999976;;
85301;SDS011;75707;46.948;7.410;2024-02-26T00:12:39;0.800000012;;;0.800000012;;
85301;SDS011;75707;46.948;7.410;2024-02-26T00:13:39;1.299999952;;;0.800000012;;
85301;SDS011;75707;46.948;7.410;2024-02-26T00:14:40;0.800000012;;;0.800000012;;
85301;SDS011;75707;46.948;7.410;2024-02-26T00:15:41;1.299999952;;;1;;
85301;SDS011;75707;46.948;7.410;2024-02-26T00:16:42;0.899999976;;;0.800000012;;
85301;SDS011;75707;46.948;7.410;2024-02-26T00:17:42;1;;;0.899999976;;
85301;SDS011;75707;46.948;7.410;2024-02-26T00:19:44;0.800000012;;;0.800000012;;
85301;SDS011;75707;46.948;7.410;2024-02-26T00:20:45;1.200000048;;;0.699999988;;
85301;SDS011;75707;46.948;7.410;2024-02-26T00:21:46;0.800000012;;;0.600000024;;
85301;SDS011;75707;46.948;7.410;2024-02-26T00:23:21;1;;;0.800000012;;
85301;SDS011;75707;46.948;7.410;2024-02-26T00:24:23;0.699999988;;;0.699999988;;
85301;SDS011;75707;46.948;7.410;2024-02-26T00:25:23;0.899999976;;;0.899999976;;
85301;SDS011;75707;46.948;7.410;2024-02-26T00:26:24;1.200000048;;;0.899999976;;
85301;SDS011;75707;46.948;7.410;2024-02-26T00:28:22;0.899999976;;;0.600000024;;
85301;SDS011;75707;46.948;7.410;2024-02-26T00:29:23;0.800000012;;;0.699999988;;
85301;SDS011;75707;46.948;7.410;2024-02-26T00:30:24;0.699999988;;;0.699999988;;
85301;SDS011;75707;46.948;7.410;2024-02-26T00:31:25;0.800000012;;;0.699999988;;
85301;SDS011;75707;46.948;7.410;2024-02-26T00:32:26;1.5;;;0.699999988;;
85301;SDS011;75707;46.948;7.410;2024-02-26T00:33:26;0.800000012;;;0.800000012;;
85301;SDS011;75707;46.948;7.410;2024-02-26T00:34:27;0.899999976;;;0.699999988;;
85301;SDS011;75707;46.948;7.410;2024-02-26T00:35:28;1.100000024;;;0.699999988;;
85301;SDS011;75707;46.948;7.410;2024-02-26T00:36:29;0.800000012;;;0.699999988;;
85301;SDS011;75707;46.948;7.410;2024-02-26T00:37:30;1.200000048;;;0.600000024;;
85301;SDS011;75707;46.948;7.410;2024-02-26T00:38:31;1.299999952;;;0.600000024;;
85301;SDS011;75707;46.948;7.410;2024-02-26T00:39:32;0.699999988;;;0.5;;
85301;SDS011;75707;46.948;7.410;2024-02-26T00:40:32;1.700000048;;;0.699999988;;
85301;SDS011;75707;46.948;7.410;2024-02-26T00:41:37;0.899999976;;;0.5;;
85301;SDS011;75707;46.948;7.410;2024-02-26T00:42:34;0.699999988;;;0.699999988;;
85301;SDS011;75707;46.948;7.410;2024-02-26T00:43:35;0.800000012;;;0.699999988;;
85301;SDS011;75707;46.948;7.410;2024-02-26T00:44:36;1;;;0.800000012;;
85301;SDS011;75707;46.948;7.410;2024-02-26T00:45:37;0.899999976;;;0.600000024;;
85301;SDS011;75707;46.948;7.410;2024-02-26T00:46:38;1.5;;;0.699999988;;
85301;SDS011;75707;46.948;7.410;2024-02-26T00:47:39;0.699999988;;;0.699999988;;
85301;SDS011;75707;46.948;7.410;2024-02-26T00:48:39;1.100000024;;;0.699999988;;
85301;SDS011;75707;46.948;7.410;2024-02-26T00:49:40;1;;;0.699999988;;
85301;SDS011;75707;46.948;7.410;2024-02-26T00:50:41;0.899999976;;;0.899999976;;
85301;SDS011;75707;46.948;7.410;2024-02-26T00:51:42;0.699999988;;;0.699999988;;
85301;SDS011;75707;46.948;7.410;2024-02-26T00:52:43;0.800000012;;;0.800000012;;
85301;SDS011;75707;46.948;7.410;2024-02-26T00:53:44;0.899999976;;;0.600000024;;
85301;SDS011;75707;46.948;7.410;2024-02-26T00:54:45;1.600000024;;;0.699999988;;
85301;SDS011;75707;46.948;7.410;2024-02-26T00:55:45;0.699999988;;;0.600000024;;
85301;SDS011;75707;46.948;7.410;2024-02-26T00:56:46;0.699999988;;;0.699999988;;
85301;SDS011;75707;46.948;7.410;2024-02-26T00:59:23;1.100000024;;;0.800000012;;
85301;SDS011;75707;46.948;7.410;2024-02-26T01:00:23;1.5;;;0.800000012;;
85301;SDS011;75707;46.948;7.410;2024-02-26T01:02:21;0.899999976;;;0.899999976;;
85301;SDS011;75707;46.948;7.410;2024-02-26T01:03:22;1.399999976;;;0.800000012;;
85301;SDS011;75707;46.948;7.410;2024-02-26T01:04:23;1.200000048;;;0.600000024;;
85301;SDS011;75707;46.948;7.410;2024-02-26T01:05:23;1.100000024;;;0.600000024;;
85301;SDS011;75707;46.948;7.410;2024-02-26T01:06:24;0.699999988;;;0.699999988;;
85301;SDS011;75707;46.948;7.410;2024-02-26T01:07:25;0.899999976;;;0.600000024;;
85301;SDS011;75707;46.948;7.410;2024-02-26T01:08:26;1.5;;;0.800000012;;
85301;SDS011;75707;46.948;7.410;2024-02-26T01:09:27;0.800000012;;;0.800000012;;
85301;SDS011;75707;46.948;7.410;2024-02-26T01:10:28;0.800000012;;;0.600000024;;
85301;SDS011;75707;46.948;7.410;2024-02-26T01:11:29;0.600000024;;;0.600000024;;
85301;SDS011;75707;46.948;7.410;2024-02-26T01:12:30;1.100000024;;;1;;
85301;SDS011;75707;46.948;7.410;2024-02-26T01:13:31;1.200000048;;;0.600000024;;
85301;SDS011;75707;46.948;7.410;2024-02-26T01:14:32;0.699999988;;;0.699999988;;
85301;SDS011;75707;46.948;7.410;2024-02-26T01:15:33;1.600000024;;;0.800000012;;
85301;SDS011;75707;46.948;7.410;2024-02-26T01:16:34;0.800000012;;;0.600000024;;
85301;SDS011;75707;46.948;7.410;2024-02-26T01:17:35;0.800000012;;;0.699999988;;
85301;SDS011;75707;46.948;7.410;2024-02-26T01:18:36;0.899999976;;;0.600000024;;
85301;SDS011;75707;46.948;7.410;2024-02-26T01:19:37;0.699999988;;;0.699999988;;
85301;SDS011;75707;46.948;7.410;2024-02-26T01:20:38;1.399999976;;;0.899999976;;
85301;SDS011;75707;46.948;7.410;2024-02-26T01:21:39;1;;;0.899999976;;
85301;SDS011;75707;46.948;7.410;2024-02-26T01:22:40;1.299999952;;;0.800000012;;
85301;SDS011;75707;46.948;7.410;2024-02-26T01:23:41;1.399999976;;;1.299999952;;
85301;SDS011;75707;46.948;7.410;2024-02-26T01:24:42;1.100000024;;;1;;
85301;SDS011;75707;46.948;7.410;2024-02-26T01:25:43;0.699999988;;;0.699999988;;
85301;SDS011;75707;46.948;7.410;2024-02-26T01:26:44;1.299999952;;;1.200000048;;
85301;SDS011;75707;46.948;7.410;2024-02-26T01:27:45;1.700000048;;;1;;
85301;SDS011;75707;46.948;7.410;2024-02-26T01:29:21;0.800000012;;;0.800000012;;
85301;SDS011;75707;46.948;7.410;2024-02-26T01:31:23;1.799999952;;;0.899999976;;
85301;SDS011;75707;46.948;7.410;2024-02-26T01:32:23;1.299999952;;;1.100000024;;
85301;SDS011;75707;46.948;7.410;2024-02-26T01:34:21;0.899999976;;;0.899999976;;
85301;SDS011;75707;46.948;7.410;2024-02-26T01:35:21;1.299999952;;;0.899999976;;
85301;SDS011;75707;46.948;7.410;2024-02-26T01:36:23;1.200000048;;;1.100000024;;
85301;SDS011;75707;46.948;7.410;2024-02-26T01:37:24;1.899999976;;;1.100000024;;
85301;SDS011;75707;46.948;7.410;2024-02-26T01:38:24;2.700000048;;;1.100000024;;
85301;SDS011;75707;46.948;7.410;2024-02-26T01:39:25;1.399999976;;;1.100000024;;
85301;SDS011;75707;46.948;7.410;2024-02-26T01:40:26;1.700000048;;;1.100000024;;
85301;SDS011;75707;46.948;7.410;2024-02-26T01:41:27;2.099999905;;;1.100000024;;
85301;SDS011;75707;46.948;7.410;2024-02-26T01:42:28;0.800000012;;;0.800000012;;
85301;SDS011;75707;46.948;7.410;2024-02-26T01:43:29;1.200000048;;;1;;
85301;SDS011;75707;46.948;7.410;2024-02-26T01:44:30;1.100000024;;;0.800000012;;
85301;SDS011;75707;46.948;7.410;2024-02-26T01:45:31;1.5;;;0.899999976;;
85301;SDS011;75707;46.948;7.410;2024-02-26T01:46:31;1.600000024;;;1;;
85301;SDS011;75707;46.948;7.410;2024-02-26T01:47:32;1.5;;;1.100000024;;
85301;SDS011;75707;46.948;7.410;2024-02-26T01:48:33;1.200000048;;;1.100000024;;
85301;SDS011;75707;46.948;7.410;2024-02-26T01:49:34;1.100000024;;;1;;
85301;SDS011;75707;46.948;7.410;2024-02-26T01:50:35;1.200000048;;;1.100000024;;
85301;SDS011;75707;46.948;7.410;2024-02-26T01:51:37;1.899999976;;;1;;
85301;SDS011;75707;46.948;7.410;2024-02-26T01:52:37;2.099999905;;;0.899999976;;
85301;SDS011;75707;46.948;7.410;2024-02-26T01:53:38;1.200000048;;;1.100000024;;
85301;SDS011;75707;46.948;7.410;2024-02-26T01:54:39;2;;;1;;
85301;SDS011;75707;46.948;7.410;2024-02-26T01:55:40;1.600000024;;;1;;
85301;SDS011;75707;46.948;7.410;2024-02-26T01:56:40;1.299999952;;;1;;
85301;SDS011;75707;46.948;7.410;2024-02-26T01:57:41;0.800000012;;;0.800000012;;
85301;SDS011;75707;46.948;7.410;2024-02-26T01:58:42;1.200000048;;;1.100000024;;
85301;SDS011;75707;46.948;7.410;2024-02-26T01:59:43;1;;;1;;
85301;SDS011;75707;46.948;7.410;2024-02-26T02:01:20;1.700000048;;;1.299999952;;
85301;SDS011;75707;46.948;7.410;2024-02-26T02:02:21;1.299999952;;;1.100000024;;
85301;SDS011;75707;46.948;7.410;2024-02-26T02:03:22;1.200000048;;;1.100000024;;
85301;SDS011;75707;46.948;7.410;2024-02-26T02:04:23;1.299999952;;;1.200000048;;
85301;SDS011;75707;46.948;7.410;2024-02-26T02:05:24;1;;;1;;
85301;SDS011;75707;46.948;7.410;2024-02-26T02:06:25;6;;;1.299999952;;
85301;SDS011;75707;46.948;7.410;2024-02-26T02:08:21;1.399999976;;;1.299999952;;
85301;SDS011;75707;46.948;7.410;2024-02-26T02:11:24;1.899999976;;;1.100000024;;
85301;SDS011;75707;46.948;7.410;2024-02-26T02:12:25;1.200000048;;;1;;
85301;SDS011;75707;46.948;7.410;2024-02-26T02:13:26;1.399999976;;;1.299999952;;
85301;SDS011;75707;46.948;7.410;2024-02-26T02:14:27;1.399999976;;;1.100000024;;
85301;SDS011;75707;46.948;7.410;2024-02-26T02:16:29;1.600000024;;;1.200000048;;
85301;SDS011;75707;46.948;7.410;2024-02-26T02:17:30;1.399999976;;;1.299999952;;
85301;SDS011;75707;46.948;7.410;2024-02-26T02:18:30;2.200000048;;;1.5;;
85301;SDS011;75707;46.948;7.410;2024-02-26T02:19:31;1.5;;;1.200000048;;
85301;SDS011;75707;46.948;7.410;2024-02-26T02:20:32;1.5;;;1.399999976;;
85301;SDS011;75707;46.948;7.410;2024-02-26T02:21:33;1.600000024;;;1.5;;
85301;SDS011;75707;46.948;7.410;2024-02-26T02:22:34;1.700000048;;;1.399999976;;
85301;SDS011;75707;46.948;7.410;2024-02-26T02:23:35;2;;;1.5;;
85301;SDS011;75707;46.948;7.410;2024-02-26T02:24:36;2.099999905;;;1.5;;
85301;SDS011;75707;46.948;7.410;2024-02-26T02:25:37;1.899999976;;;1.399999976;;
85301;SDS011;75707;46.948;7.410;2024-02-26T02:26:37;2.200000048;;;1.5;;
85301;SDS011;75707;46.948;7.410;2024-02-26T02:27:39;1.5;;;1.399999976;;
85301;SDS011;75707;46.948;7.410;2024-02-26T02:28:39;1.799999952;;;1.600000024;;
85301;SDS011;75707;46.948;7.410;2024-02-26T02:29:40;1.600000024;;;1.5;;
85301;SDS011;75707;46.948;7.410;2024-02-26T02:31:42;1.600000024;;;1.299999952;;
85301;SDS011;75707;46.948;7.410;2024-02-26T02:32:43;1.5;;;1.399999976;;
85301;SDS011;75707;46.948;7.410;2024-02-26T02:34:21;1.799999952;;;1.5;;
85301;SDS011;75707;46.948;7.410;2024-02-26T02:35:22;1.700000048;;;1.299999952;;
85301;SDS011;75707;46.948;7.410;2024-02-26T02:36:23;1.600000024;;;1.5;;
85301;SDS011;75707;46.948;7.410;2024-02-26T02:38:25;2.099999905;;;1.5;;
85301;SDS011;75707;46.948;7.410;2024-02-26T02:39:26;1.700000048;;;1.600000024;;
85301;SDS011;75707;46.948;7.410;2024-02-26T02:41:21;1.700000048;;;1.399999976;;
85301;SDS011;75707;46.948;7.410;2024-02-26T02:42:22;1.799999952;;;1.399999976;;
85301;SDS011;75707;46.948;7.410;2024-02-26T02:43:23;1.600000024;;;1.5;;
85301;SDS011;75707;46.948;7.410;2024-02-26T02:44:24;1.799999952;;;1.700000048;;
85301;SDS011;75707;46.948;7.410;2024-02-26T02:45:25;2.400000095;;;1.399999976;;
85301;SDS011;75707;46.948;7.410;2024-02-26T02:46:26;2;;;1.399999976;;
85301;SDS011;75707;46.948;7.410;2024-02-26T02:47:27;1.5;;;1.399999976;;
85301;SDS011;75707;46.948;7.410;2024-02-26T02:48:27;2.099999905;;;1.899999976;;
85301;SDS011;75707;46.948;7.410;2024-02-26T02:49:29;1.700000048;;;1.299999952;;
85301;SDS011;75707;46.948;7.410;2024-02-26T02:50:29;1.700000048;;;1.600000024;;
85301;SDS011;75707;46.948;7.410;2024-02-26T02:51:30;2;;;1.399999976;;
85301;SDS011;75707;46.948;7.410;2024-02-26T02:52:31;1.299999952;;;1.200000048;;
85301;SDS011;75707;46.948;7.410;2024-02-26T02:53:32;2.200000048;;;1.600000024;;
85301;SDS011;75707;46.948;7.410;2024-02-26T02:54:33;1.600000024;;;1.5;;
85301;SDS011;75707;46.948;7.410;2024-02-26T02:55:34;1.399999976;;;1.200000048;;
85301;SDS011;75707;46.948;7.410;2024-02-26T02:56:35;1.700000048;;;1.299999952;;
85301;SDS011;75707;46.948;7.410;2024-02-26T02:57:36;2;;;1.5;;
85301;SDS011;75707;46.948;7.410;2024-02-26T02:58:37;2.099999905;;;1.200000048;;
85301;SDS011;75707;46.948;7.410;2024-02-26T02:59:38;1.399999976;;;1.299999952;;
85301;SDS011;75707;46.948;7.410;2024-02-26T03:01:40;3.5;;;1.299999952;;
85301;SDS011;75707;46.948;7.410;2024-02-26T03:02:41;1;;;1;;
85301;SDS011;75707;46.948;7.410;2024-02-26T03:03:42;1.200000048;;;1;;
85301;SDS011;75707;46.948;7.410;2024-02-26T03:04:43;1.200000048;;;1.100000024;;
85301;SDS011;75707;46.948;7.410;2024-02-26T03:06:20;1.299999952;;;1.100000024;;
85301;SDS011;75707;46.948;7.410;2024-02-26T03:07:21;1.399999976;;;1;;
85301;SDS011;75707;46.948;7.410;2024-02-26T03:08:22;1.100000024;;;1;;
85301;SDS011;75707;46.948;7.410;2024-02-26T03:09:23;1;;;0.899999976;;
85301;SDS011;75707;46.948;7.410;2024-02-26T03:10:24;2.799999952;;;1.5;;
85301;SDS011;75707;46.948;7.410;2024-02-26T03:11:25;2.299999952;;;1.100000024;;
85301;SDS011;75707;46.948;7.410;2024-02-26T03:13:21;1;;;1;;
85301;SDS011;75707;46.948;7.410;2024-02-26T03:14:22;1;;;0.899999976;;
85301;SDS011;75707;46.948;7.410;2024-02-26T03:15:23;1.100000024;;;1;;
85301;SDS011;75707;46.948;7.410;2024-02-26T03:16:24;1.399999976;;;1;;
85301;SDS011;75707;46.948;7.410;2024-02-26T03:17:25;0.899999976;;;0.899999976;;
85301;SDS011;75707;46.948;7.410;2024-02-26T03:19:26;1;;;0.699999988;;
85301;SDS011;75707;46.948;7.410;2024-02-26T03:20:27;1.100000024;;;0.699999988;;
85301;SDS011;75707;46.948;7.410;2024-02-26T03:21:28;0.899999976;;;0.899999976;;
85301;SDS011;75707;46.948;7.410;2024-02-26T03:22:29;0.800000012;;;0.800000012;;
85301;SDS011;75707;46.948;7.410;2024-02-26T03:23:30;0.699999988;;;0.699999988;;
85301;SDS011;75707;46.948;7.410;2024-02-26T03:24:31;0.800000012;;;0.800000012;;
85301;SDS011;75707;46.948;7.410;2024-02-26T03:25:32;0.800000012;;;0.600000024;;
85301;SDS011;75707;46.948;7.410;2024-02-26T03:26:33;0.800000012;;;0.800000012;;
85301;SDS011;75707;46.948;7.410;2024-02-26T03:27:34;0.800000012;;;0.699999988;;
85301;SDS011;75707;46.948;7.410;2024-02-26T03:28:35;2.200000048;;;0.800000012;;
85301;SDS011;75707;46.948;7.410;2024-02-26T03:29:36;1.200000048;;;0.699999988;;
85301;SDS011;75707;46.948;7.410;2024-02-26T03:30:36;0.699999988;;;0.600000024;;
85301;SDS011;75707;46.948;7.410;2024-02-26T03:31:37;0.600000024;;;0.600000024;;
85301;SDS011;75707;46.948;7.410;2024-02-26T03:32:38;0.800000012;;;0.600000024;;
85301;SDS011;75707;46.948;7.410;2024-02-26T03:33:39;0.699999988;;;0.699999988;;
85301;SDS011;75707;46.948;7.410;2024-02-26T03:34:40;0.800000012;;;0.600000024;;
85301;SDS011;75707;46.948;7.410;2024-02-26T03:35:41;0.800000012;;;0.800000012;;
85301;SDS011;75707;46.948;7.410;2024-02-26T03:36:41;0.699999988;;;0.600000024;;
85301;SDS011;75707;46.948;7.410;2024-02-26T03:37:42;0.600000024;;;0.600000024;;
85301;SDS011;75707;46.948;7.410;2024-02-26T03:38:43;0.600000024;;;0.600000024;;
85301;SDS011;75707;46.948;7.410;2024-02-26T03:40:21;0.699999988;;;0.699999988;;
85301;SDS011;75707;46.948;7.410;2024-02-26T03:41:21;0.600000024;;;0.600000024;;
85301;SDS011;75707;46.948;7.410;2024-02-26T03:42:23;0.800000012;;;0.800000012;;
85301;SDS011;75707;46.948;7.410;2024-02-26T03:43:23;0.699999988;;;0.699999988;;
85301;SDS011;75707;46.948;7.410;2024-02-26T03:44:24;0.699999988;;;0.699999988;;
85301;SDS011;75707;46.948;7.410;2024-02-26T03:47:21;1;;;0.800000012;;
85301;SDS011;75707;46.948;7.410;2024-02-26T03:48:23;0.699999988;;;0.699999988;;
85301;SDS011;75707;46.948;7.410;2024-02-26T03:50:24;0.600000024;;;0.600000024;;
85301;SDS011;75707;46.948;7.410;2024-02-26T03:51:25;0.899999976;;;0.699999988;;
85301;SDS011;75707;46.948;7.410;2024-02-26T03:52:26;0.600000024;;;0.600000024;;
85301;SDS011;75707;46.948;7.410;2024-02-26T03:53:27;0.899999976;;;0.699999988;;
85301;SDS011;75707;46.948;7.410;2024-02-26T03:54:28;3.099999905;;;0.699999988;;
85301;SDS011;75707;46.948;7.410;2024-02-26T03:55:29;1.100000024;;;0.699999988;;
85301;SDS011;75707;46.948;7.410;2024-02-26T03:56:30;1.200000048;;;0.699999988;;
85301;SDS011;75707;46.948;7.410;2024-02-26T03:57:31;0.699999988;;;0.699999988;;
85301;SDS011;75707;46.948;7.410;2024-02-26T03:58:31;0.600000024;;;0.600000024;;
85301;SDS011;75707;46.948;7.410;2024-02-26T03:59:32;0.5;;;0.5;;
85301;SDS011;75707;46.948;7.410;2024-02-26T04:00:33;0.800000012;;;0.800000012;;
85301;SDS011;75707;46.948;7.410;2024-02-26T04:01:34;1.899999976;;;0.699999988;;
85301;SDS011;75707;46.948;7.410;2024-02-26T04:02:35;0.600000024;;;0.600000024;;
85301;SDS011;75707;46.948;7.410;2024-02-26T04:04:37;0.5;;;0.5;;
85301;SDS011;75707;46.948;7.410;2024-02-26T04:05:38;0.600000024;;;0.600000024;;
85301;SDS011;75707;46.948;7.410;2024-02-26T04:06:38;1.200000048;;;0.600000024;;
85301;SDS011;75707;46.948;7.410;2024-02-26T04:07:39;0.699999988;;;0.600000024;;
85301;SDS011;75707;46.948;7.410;2024-02-26T04:08:40;1.200000048;;;0.600000024;;
85301;SDS011;75707;46.948;7.410;2024-02-26T04:09:41;1;;;0.699999988;;
85301;SDS011;75707;46.948;7.410;2024-02-26T04:10:42;0.899999976;;;0.600000024;;
85301;SDS011;75707;46.948;7.410;2024-02-26T04:11:43;0.600000024;;;0.600000024;;
85301;SDS011;75707;46.948;7.410;2024-02-26T04:14:20;1;;;0.699999988;;
85301;SDS011;75707;46.948;7.410;2024-02-26T04:15:21;0.600000024;;;0.600000024;;
85301;SDS011;75707;46.948;7.410;2024-02-26T04:17:24;0.699999988;;;0.699999988;;
85301;SDS011;75707;46.948;7.410;2024-02-26T04:19:19;0.800000012;;;0.800000012;;
85301;SDS011;75707;46.948;7.410;2024-02-26T04:20:20;0.600000024;;;0.600000024;;
85301;SDS011;75707;46.948;7.410;2024-02-26T04:21:21;0.699999988;;;0.600000024;;
85301;SDS011;75707;46.948;7.410;2024-02-26T04:22:22;0.5;;;0.5;;
85301;SDS011;75707;46.948;7.410;2024-02-26T04:23:23;0.400000006;;;0.400000006;;
85301;SDS011;75707;46.948;7.410;2024-02-26T04:24:24;1;;;0.5;;
85301;SDS011;75707;46.948;7.410;2024-02-26T04:25:25;0.699999988;;;0.699999988;;
85301;SDS011;75707;46.948;7.410;2024-02-26T04:27:27;0.400000006;;;0.400000006;;
85301;SDS011;75707;46.948;7.410;2024-02-26T04:29:29;0.5;;;0.5;;
85301;SDS011;75707;46.948;7.410;2024-02-26T04:32:31;0.899999976;;;0.400000006;;
85301;SDS011;75707;46.948;7.410;2024-02-26T04:33:33;0.5;;;0.5;;
85301;SDS011;75707;46.948;7.410;2024-02-26T04:34:33;1;;;0.400000006;;
85301;SDS011;75707;46.948;7.410;2024-02-26T04:35:34;0.400000006;;;0.400000006;;
85301;SDS011;75707;46.948;7.410;2024-02-26T04:36:35;0.5;;;0.5;;
85301;SDS011;75707;46.948;7.410;2024-02-26T04:37:36;0.400000006;;;0.400000006;;
85301;SDS011;75707;46.948;7.410;2024-02-26T04:41:39;0.600000024;;;0.600000024;;
85301;SDS011;75707;46.948;7.410;2024-02-26T04:42:40;0.5;;;0.5;;
85301;SDS011;75707;46.948;7.410;2024-02-26T04:43:41;0.800000012;;;0.5;;
85301;SDS011;75707;46.948;7.410;2024-02-26T04:44:42;0.400000006;;;0.400000006;;
85301;SDS011;75707;46.948;7.410;2024-02-26T04:45:43;0.300000012;;;0.300000012;;
85301;SDS011;75707;46.948;7.410;2024-02-26T04:46:44;0.699999988;;;0.400000006;;
85301;SDS011;75707;46.948;7.410;2024-02-26T04:48:19;0.600000024;;;0.400000006;;
85301;SDS011;75707;46.948;7.410;2024-02-26T04:49:20;0.400000006;;;0.400000006;;
85301;SDS011;75707;46.948;7.410;2024-02-26T04:50:21;0.5;;;0.400000006;;
85301;SDS011;75707;46.948;7.410;2024-02-26T04:52:19;1.200000048;;;0.400000006;;
85301;SDS011;75707;46.948;7.410;2024-02-26T04:53:20;0.400000006;;;0.400000006;;
85301;SDS011;75707;46.948;7.410;2024-02-26T04:54:21;0.5;;;0.5;;
85301;SDS011;75707;46.948;7.410;2024-02-26T04:55:22;0.400000006;;;0.400000006;;
85301;SDS011;75707;46.948;7.410;2024-02-26T04:57:24;1.100000024;;;0.5;;
85301;SDS011;75707;46.948;7.410;2024-02-26T04:58:24;0.5;;;0.400000006;;
85301;SDS011;75707;46.948;7.410;2024-02-26T04:59:25;0.600000024;;;0.600000024;;
85301;SDS011;75707;46.948;7.410;2024-02-26T05:00:26;0.400000006;;;0.400000006;;
85301;SDS011;75707;46.948;7.410;2024-02-26T05:01:27;1.299999952;;;0.5;;
85301;SDS011;75707;46.948;7.410;2024-02-26T05:02:28;0.400000006;;;0.400000006;;
85301;SDS011;75707;46.948;7.410;2024-02-26T05:03:29;0.5;;;0.5;;
85301;SDS011;75707;46.948;7.410;2024-02-26T05:04:30;0.600000024;;;0.400000006;;
85301;SDS011;75707;46.948;7.410;2024-02-26T05:06:32;0.5;;;0.5;;
85301;SDS011;75707;46.948;7.410;2024-02-26T05:07:32;0.5;;;0.300000012;;
85301;SDS011;75707;46.948;7.410;2024-02-26T05:08:33;0.600000024;;;0.600000024;;
85301;SDS011;75707;46.948;7.410;2024-02-26T05:09:34;0.699999988;;;0.600000024;;
85301;SDS011;75707;46.948;7.410;2024-02-26T05:10:35;0.5;;;0.5;;
85301;SDS011;75707;46.948;7.410;2024-02-26T05:12:37;0.400000006;;;0.400000006;;
85301;SDS011;75707;46.948;7.410;2024-02-26T05:13:37;1;;;0.5;;
85301;SDS011;75707;46.948;7.410;2024-02-26T05:14:38;0.400000006;;;0.400000006;;
85301;SDS011;75707;46.948;7.410;2024-02-26T05:15:39;0.5;;;0.5;;
85301;SDS011;75707;46.948;7.410;2024-02-26T05:16:40;0.400000006;;;0.400000006;;
85301;SDS011;75707;46.948;7.410;2024-02-26T05:18:42;0.800000012;;;0.5;;
85301;SDS011;75707;46.948;7.410;2024-02-26T05:19:43;0.600000024;;;0.5;;
85301;SDS011;75707;46.948;7.410;2024-02-26T05:21:19;0.5;;;0.5;;
85301;SDS011;75707;46.948;7.410;2024-02-26T05:23:20;0.300000012;;;0.300000012;;
85301;SDS011;75707;46.948;7.410;2024-02-26T05:24:21;0.400000006;;;0.400000006;;
85301;SDS011;75707;46.948;7.410;2024-02-26T05:25:22;1;;;0.5;;
85301;SDS011;75707;46.948;7.410;2024-02-26T05:27:19;0.5;;;0.5;;
85301;SDS011;75707;46.948;7.410;2024-02-26T05:29:21;0.300000012;;;0.300000012;;
85301;SDS011;75707;46.948;7.410;2024-02-26T05:30:21;0.400000006;;;0.400000006;;
85301;SDS011;75707;46.948;7.410;2024-02-26T05:33:24;0.899999976;;;0.5;;
85301;SDS011;75707;46.948;7.410;2024-02-26T05:34:25;0.800000012;;;0.400000006;;
85301;SDS011;75707;46.948;7.410;2024-02-26T05:35:26;0.600000024;;;0.600000024;;
85301;SDS011;75707;46.948;7.410;2024-02-26T05:36:27;0.400000006;;;0.400000006;;
85301;SDS011;75707;46.948;7.410;2024-02-26T05:37:27;0.300000012;;;0.300000012;;
85301;SDS011;75707;46.948;7.410;2024-02-26T05:38:28;0.5;;;0.5;;
85301;SDS011;75707;46.948;7.410;2024-02-26T05:40:30;0.800000012;;;0.5;;
85301;SDS011;75707;46.948;7.410;2024-02-26T05:41:31;0.5;;;0.5;;
85301;SDS011;75707;46.948;7.410;2024-02-26T05:42:32;0.600000024;;;0.600000024;;
85301;SDS011;75707;46.948;7.410;2024-02-26T05:43:32;0.899999976;;;0.5;;
85301;SDS011;75707;46.948;7.410;2024-02-26T05:44:33;0.5;;;0.5;;
85301;SDS011;75707;46.948;7.410;2024-02-26T05:47:36;0.699999988;;;0.699999988;;
85301;SDS011;75707;46.948;7.410;2024-02-26T05:48:37;1.5;;;0.5;;
85301;SDS011;75707;46.948;7.410;2024-02-26T05:49:38;0.5;;;0.400000006;;
85301;SDS011;75707;46.948;7.410;2024-02-26T05:50:39;0.600000024;;;0.600000024;;
85301;SDS011;75707;46.948;7.410;2024-02-26T05:51:39;0.5;;;0.5;;
85301;SDS011;75707;46.948;7.410;2024-02-26T05:53:41;0.400000006;;;0.400000006;;
85301;SDS011;75707;46.948;7.410;2024-02-26T05:54:42;0.899999976;;;0.5;;
85301;SDS011;75707;46.948;7.410;2024-02-26T05:56:19;0.400000006;;;0.400000006;;
85301;SDS011;75707;46.948;7.410;2024-02-26T05:57:20;0.300000012;;;0.300000012;;
85301;SDS011;75707;46.948;7.410;2024-02-26T05:58:20;0.5;;;0.5;;
85301;SDS011;75707;46.948;7.410;2024-02-26T05:59:21;0.400000006;;;0.400000006;;
85301;SDS011;75707;46.948;7.410;2024-02-26T06:00:22;0.5;;;0.300000012;;
85301;SDS011;75707;46.948;7.410;2024-02-26T06:02:19;0.400000006;;;0.400000006;;
85301;SDS011;75707;46.948;7.410;2024-02-26T06:03:20;0.899999976;;;0.300000012;;
85301;SDS011;75707;46.948;7.410;2024-02-26T06:04:21;0.300000012;;;0.300000012;;
85301;SDS011;75707;46.948;7.410;2024-02-26T06:05:22;1.799999952;;;0.600000024;;
85301;SDS011;75707;46.948;7.410;2024-02-26T06:06:23;0.5;;;0.5;;
85301;SDS011;75707;46.948;7.410;2024-02-26T06:07:24;0.400000006;;;0.400000006;;
85301;SDS011;75707;46.948;7.410;2024-02-26T06:09:25;0.5;;;0.5;;
85301;SDS011;75707;46.948;7.410;2024-02-26T06:10:26;0.600000024;;;0.400000006;;